createdAt,value
2019-05-10T00:00:31.664Z,3.83
2019-05-10T00:03:18.343Z,4.70
2019-05-10T00:06:05.165Z,4.00
2019-05-10T00:08:45.435Z,4.10
2019-05-10T00:11:30.352Z,4.10
2019-05-10T00:14:00.781Z,4.00
2019-05-10T00:16:29.844Z,4.10
2019-05-10T00:18:58.552Z,4.57
2019-05-10T00:21:27.243Z,5.07
2019-05-10T00:23:56.000Z,4.50
2019-05-10T00:26:24.693Z,5.00
2019-05-10T00:28:53.384Z,4.30
2019-05-10T00:31:22.085Z,4.13
2019-05-10T00:33:50.772Z,5.10
2019-05-10T00:36:19.467Z,4.63
2019-05-10T00:38:48.161Z,4.27
2019-05-10T00:41:16.859Z,4.50
2019-05-10T00:43:45.560Z,4.87
2019-05-10T00:46:14.251Z,4.50
2019-05-10T00:48:43.106Z,5.37
2019-05-10T00:51:11.723Z,5.00
2019-05-10T00:53:40.422Z,5.37
2019-05-10T00:56:09.120Z,6.13
2019-05-10T00:58:37.811Z,5.60
2019-05-10T01:01:06.528Z,5.30
2019-05-10T01:03:35.219Z,5.77
2019-05-10T01:06:03.958Z,5.77
2019-05-10T01:08:32.630Z,6.20
2019-05-10T01:11:01.327Z,6.17
2019-05-10T01:13:30.020Z,6.57
2019-05-10T01:15:58.719Z,6.10
2019-05-10T01:18:27.416Z,6.60
2019-05-10T01:20:56.287Z,6.83
2019-05-10T01:23:24.982Z,7.17
2019-05-10T01:25:53.677Z,7.20
2019-05-10T01:28:22.371Z,6.73
2019-05-10T01:30:51.133Z,6.40
2019-05-10T01:33:19.951Z,6.83
2019-05-10T01:35:48.642Z,7.20
2019-05-10T01:38:17.339Z,6.80
2019-05-10T01:40:46.043Z,7.20
2019-05-10T01:43:14.736Z,7.23
2019-05-10T01:45:43.542Z,7.57
2019-05-10T01:48:12.267Z,7.37
2019-05-10T01:50:40.971Z,7.83
2019-05-10T01:53:09.673Z,8.00
2019-05-10T01:55:50.863Z,8.40
2019-05-10T01:58:08.730Z,7.83
2019-05-10T02:00:37.419Z,7.50
2019-05-10T02:03:06.133Z,7.77
2019-05-10T02:05:34.811Z,8.27
2019-05-10T02:08:03.511Z,8.47
2019-05-10T02:10:32.208Z,8.40
2019-05-10T02:13:01.056Z,8.30
2019-05-10T02:15:29.747Z,8.93
2019-05-10T02:17:58.438Z,8.10
2019-05-10T02:20:27.136Z,9.33
2019-05-10T02:22:55.827Z,9.00
2019-05-10T02:25:24.527Z,8.80
2019-05-10T02:27:53.219Z,9.10
2019-05-10T02:30:21.925Z,9.50
2019-05-10T02:32:50.616Z,9.73
2019-05-10T02:35:19.360Z,9.17
2019-05-10T02:37:48.077Z,9.90
2019-05-10T02:40:17.039Z,9.60
2019-05-10T02:42:45.739Z,9.60
2019-05-10T02:45:14.935Z,10.53
2019-05-10T02:47:43.634Z,9.40
2019-05-10T02:50:13.424Z,9.90
2019-05-10T02:52:42.138Z,9.87
2019-05-10T02:55:10.831Z,9.73
2019-05-10T02:57:39.839Z,9.93
2019-05-10T03:00:10.213Z,10.63
2019-05-10T03:02:39.708Z,10.70
2019-05-10T03:05:08.828Z,10.47
2019-05-10T03:07:38.679Z,11.20
2019-05-10T03:10:11.744Z,11.23
2019-05-10T03:12:41.758Z,11.37
2019-05-10T03:15:12.115Z,11.17
2019-05-10T03:17:41.183Z,11.47
2019-05-10T03:20:12.059Z,11.63
2019-05-10T03:22:44.312Z,11.57
2019-05-10T03:25:14.526Z,11.67
2019-05-10T03:27:43.375Z,11.60
2019-05-10T03:30:12.371Z,11.17
2019-05-10T03:32:41.093Z,11.30
2019-05-10T03:35:09.883Z,11.90
2019-05-10T03:37:38.776Z,12.57
2019-05-10T03:40:08.662Z,11.33
2019-05-10T03:42:37.475Z,12.30
2019-05-10T03:45:08.576Z,12.40
2019-05-10T03:47:37.504Z,11.73
2019-05-10T03:50:07.407Z,12.87
2019-05-10T03:52:36.106Z,12.87
2019-05-10T03:55:05.808Z,11.90
2019-05-10T03:57:34.506Z,11.63
2019-05-10T04:00:04.907Z,12.03
2019-05-10T04:02:33.616Z,11.63
2019-05-10T04:05:02.547Z,10.77
2019-05-10T04:07:31.835Z,11.07
2019-05-10T04:10:00.541Z,10.97
2019-05-10T04:12:29.267Z,10.97
2019-05-10T04:14:57.968Z,10.47
2019-05-10T04:17:26.672Z,11.20
2019-05-10T04:19:55.372Z,11.00
2019-05-10T04:22:24.071Z,11.17
2019-05-10T04:24:52.772Z,11.70
2019-05-10T04:27:31.607Z,11.40
2019-05-10T04:29:51.820Z,11.30
2019-05-10T04:32:20.522Z,10.60
2019-05-10T04:34:49.224Z,10.37
2019-05-10T04:37:17.928Z,10.83
2019-05-10T04:39:46.871Z,10.77
2019-05-10T04:42:15.572Z,11.40
2019-05-10T04:44:44.268Z,10.90
2019-05-10T04:47:12.985Z,10.73
2019-05-10T04:49:41.720Z,11.13
2019-05-10T04:52:10.409Z,10.30
2019-05-10T04:54:39.188Z,10.80
2019-05-10T04:57:08.009Z,9.93
2019-05-10T04:59:36.644Z,10.17
2019-05-10T05:02:05.353Z,11.27
2019-05-10T05:04:34.056Z,10.63
2019-05-10T05:07:02.757Z,10.30
2019-05-10T05:09:31.469Z,9.47
2019-05-10T05:12:00.163Z,9.97
2019-05-10T05:14:28.873Z,10.17
2019-05-10T05:16:57.563Z,10.97
2019-05-10T05:19:26.271Z,10.40
2019-05-10T05:21:55.020Z,10.53
2019-05-10T05:24:24.540Z,10.03
2019-05-10T05:26:53.299Z,9.87
2019-05-10T05:29:21.915Z,9.53
2019-05-10T05:31:54.109Z,9.87
2019-05-10T05:34:21.048Z,9.80
2019-05-10T05:36:49.667Z,9.83
2019-05-10T05:39:18.371Z,10.40
2019-05-10T05:41:49.931Z,9.80
2019-05-10T05:44:20.414Z,9.37
2019-05-10T05:46:47.699Z,9.57
2019-05-10T05:49:16.419Z,9.73
2019-05-10T05:51:45.148Z,9.60
2019-05-10T05:54:15.119Z,8.93
2019-05-10T05:56:49.830Z,8.13
2019-05-10T05:59:17.524Z,8.23
2019-05-10T06:01:44.907Z,8.50
2019-05-10T06:04:13.542Z,8.57
2019-05-10T06:06:42.507Z,8.70
2019-05-10T06:09:11.200Z,8.90
2019-05-10T06:11:39.899Z,8.40
2019-05-10T06:14:12.867Z,9.10
2019-05-10T06:16:38.939Z,8.17
2019-05-10T06:19:07.679Z,8.43
2019-05-10T06:21:36.367Z,8.30
2019-05-10T06:24:07.644Z,8.73
2019-05-10T06:26:35.607Z,8.93
2019-05-10T06:29:10.043Z,8.37
2019-05-10T06:31:34.652Z,9.07
2019-05-10T06:34:03.351Z,8.20
2019-05-10T06:36:32.051Z,8.90
2019-05-10T06:39:00.743Z,8.73
2019-05-10T06:41:32.422Z,8.63
2019-05-10T06:43:59.786Z,8.60
2019-05-10T06:46:29.403Z,8.00
2019-05-10T06:49:07.315Z,7.73
2019-05-10T06:51:29.184Z,8.50
2019-05-10T06:53:57.875Z,8.03
2019-05-10T06:56:26.584Z,7.90
2019-05-10T06:58:55.286Z,8.20
2019-05-10T07:01:23.979Z,8.13
2019-05-10T07:03:52.680Z,8.40
2019-05-10T07:06:21.388Z,8.50
2019-05-10T07:08:51.582Z,7.87
2019-05-10T07:11:20.428Z,8.17
2019-05-10T07:13:52.829Z,8.17
2019-05-10T07:16:24.182Z,8.17
2019-05-10T07:18:54.865Z,7.87
2019-05-10T07:21:20.431Z,8.37
2019-05-10T07:23:49.123Z,8.63
2019-05-10T07:26:24.279Z,9.20
2019-05-10T07:28:51.802Z,8.90
2019-05-10T07:31:18.512Z,9.67
2019-05-10T07:33:47.203Z,9.23
2019-05-10T07:36:30.488Z,8.80
2019-05-10T07:39:02.712Z,8.83
2019-05-10T07:41:29.120Z,8.80
2019-05-10T07:44:00.858Z,9.30
2019-05-10T07:46:28.387Z,9.00
2019-05-10T07:48:57.077Z,10.33
2019-05-10T07:51:28.805Z,9.20
2019-05-10T07:53:56.855Z,10.50
2019-05-10T07:56:26.567Z,9.33
2019-05-10T07:58:55.258Z,9.37
2019-05-10T08:01:43.228Z,9.30
2019-05-10T08:04:13.137Z,9.07
2019-05-10T08:06:47.466Z,9.27
2019-05-10T08:09:12.358Z,9.63
2019-05-10T08:11:41.069Z,9.60
2019-05-10T08:14:11.298Z,9.57
2019-05-10T08:16:40.166Z,9.57
2019-05-10T08:19:08.867Z,10.13
2019-05-10T08:21:37.559Z,9.57
2019-05-10T08:24:13.312Z,9.90
2019-05-10T08:26:36.601Z,9.27
2019-05-10T08:29:07.635Z,9.67
2019-05-10T08:31:40.341Z,8.93
2019-05-10T08:34:06.697Z,9.30
2019-05-10T08:36:37.281Z,9.00
2019-05-10T08:39:10.642Z,10.07
2019-05-10T08:41:36.887Z,8.77
2019-05-10T08:44:05.543Z,10.10
2019-05-10T08:46:41.041Z,9.00
2019-05-10T08:49:04.776Z,8.73
2019-05-10T08:51:34.545Z,8.63
2019-05-10T08:54:03.375Z,8.60
2019-05-10T08:56:33.320Z,8.87
2019-05-10T08:59:03.902Z,8.13
2019-05-10T09:01:38.871Z,8.40
2019-05-10T09:04:06.894Z,7.83
2019-05-10T09:06:33.526Z,7.27
2019-05-10T09:09:05.998Z,7.37
2019-05-10T09:11:32.812Z,8.37
2019-05-10T09:14:03.156Z,7.93
2019-05-10T09:16:39.501Z,8.07
2019-05-10T09:19:02.696Z,7.90
2019-05-10T09:21:32.184Z,7.23
2019-05-10T09:24:03.415Z,6.97
2019-05-10T09:26:32.224Z,7.40
2019-05-10T09:29:01.641Z,6.40
2019-05-10T09:31:32.533Z,6.23
2019-05-10T09:34:02.504Z,6.33
2019-05-10T09:36:52.837Z,6.63
2019-05-10T09:39:24.306Z,5.80
2019-05-10T09:41:52.776Z,5.77
2019-05-10T09:44:22.921Z,6.30
2019-05-10T09:46:52.487Z,5.70
2019-05-10T09:49:23.217Z,5.60
2019-05-10T09:51:52.507Z,5.40
2019-05-10T09:54:23.302Z,4.17
2019-05-10T09:56:52.511Z,3.70
2019-05-10T09:59:21.263Z,3.90
2019-05-10T10:01:49.999Z,3.62
2019-05-10T10:04:20.468Z,4.47
2019-05-10T10:06:52.633Z,4.00
2019-05-10T10:09:19.399Z,3.83
2019-05-10T10:11:57.272Z,3.95
2019-05-10T10:14:18.447Z,4.12
2019-05-10T10:16:57.905Z,4.03
2019-05-10T10:19:20.350Z,4.30
2019-05-10T10:21:47.839Z,3.92
2019-05-10T10:24:20.044Z,4.30
2019-05-10T10:26:48.204Z,3.85
2019-05-10T10:29:17.282Z,3.80
2019-05-10T10:31:54.707Z,4.28
2019-05-10T10:34:17.352Z,4.20
2019-05-10T10:36:47.539Z,4.15
2019-05-10T10:39:17.012Z,4.55
2019-05-10T10:41:48.076Z,4.22
2019-05-10T10:44:18.167Z,4.20
2019-05-10T10:46:47.990Z,4.45
2019-05-10T10:49:17.819Z,4.58
2019-05-10T10:51:47.267Z,4.62
2019-05-10T10:54:17.635Z,4.62
2019-05-10T10:56:48.331Z,4.47
2019-05-10T10:59:18.296Z,4.28
2019-05-10T11:01:52.152Z,4.30
2019-05-10T11:04:17.968Z,4.25
2019-05-10T11:06:46.660Z,4.30
2019-05-10T11:09:15.372Z,4.30
2019-05-10T11:11:44.892Z,4.13
2019-05-10T11:14:13.601Z,4.33
2019-05-10T11:16:46.605Z,4.25
2019-05-10T11:19:15.549Z,4.40
2019-05-10T11:21:43.044Z,4.35
2019-05-10T11:24:18.231Z,3.95
2019-05-10T11:26:44.763Z,4.50
2019-05-10T11:29:14.215Z,4.25
2019-05-10T11:31:42.823Z,4.33
2019-05-10T11:34:11.537Z,4.67
2019-05-10T11:36:45.260Z,4.70
2019-05-10T11:39:24.814Z,4.53
2019-05-10T11:41:40.980Z,4.22
2019-05-10T11:44:11.908Z,4.37
2019-05-10T11:46:41.607Z,4.08
2019-05-10T11:49:10.724Z,4.05
2019-05-10T11:51:41.379Z,4.03
2019-05-10T11:54:11.144Z,3.70
2019-05-10T11:56:41.020Z,3.65
2019-05-10T11:59:15.885Z,3.52
2019-05-10T12:01:41.749Z,3.33
2019-05-10T12:04:12.990Z,3.77
2019-05-10T12:09:12.515Z,3.52
2019-05-10T12:11:51.655Z,3.22
2019-05-10T12:14:13.765Z,3.05
2019-05-10T12:16:42.299Z,3.47
2019-05-10T12:19:20.018Z,3.40
2019-05-10T12:21:41.330Z,3.20
2019-05-10T12:24:26.455Z,3.60
2019-05-10T12:26:18.949Z,3.47
2019-05-10T12:29:13.385Z,3.45
2019-05-10T12:31:41.553Z,3.08
2019-05-10T12:34:14.392Z,3.00
2019-05-10T12:36:41.186Z,3.40
2019-05-10T12:39:11.703Z,3.45
2019-05-10T12:41:48.371Z,3.02
2019-05-10T12:44:11.279Z,3.20
2019-05-10T12:46:42.231Z,2.67
2019-05-10T12:49:12.014Z,3.42
2019-05-10T12:51:43.011Z,2.95
2019-05-10T12:54:11.371Z,3.08
2019-05-10T12:56:43.847Z,3.25
2019-05-10T12:59:10.387Z,3.00
2019-05-10T13:01:39.092Z,3.10
2019-05-10T13:04:14.467Z,3.20
2019-05-10T13:06:38.148Z,3.27
2019-05-10T13:09:07.774Z,3.50
2019-05-10T13:11:36.426Z,2.90
2019-05-10T13:14:07.322Z,3.25
2019-05-10T13:16:35.484Z,2.72
2019-05-10T13:19:04.175Z,2.92
2019-05-10T13:21:32.879Z,2.80
2019-05-10T13:24:01.578Z,2.75
2019-05-10T13:26:30.279Z,2.80
2019-05-10T13:29:01.997Z,2.50
2019-05-10T13:31:29.327Z,2.40
2019-05-10T13:33:58.036Z,2.67
2019-05-10T13:36:30.540Z,2.40
2019-05-10T13:38:57.091Z,2.58
2019-05-10T13:41:26.525Z,2.40
2019-05-10T13:43:59.047Z,2.60
2019-05-10T13:46:25.801Z,2.55
2019-05-10T13:49:13.836Z,2.20
2019-05-10T13:51:42.530Z,2.30
2019-05-10T13:54:11.228Z,2.22
2019-05-10T13:56:45.142Z,2.37
2019-05-10T13:59:18.004Z,2.00
2019-05-10T14:01:44.158Z,1.95
2019-05-10T14:04:11.235Z,1.90
2019-05-10T14:06:39.989Z,2.00
2019-05-10T14:09:08.707Z,2.08
2019-05-10T14:11:40.932Z,1.98
2019-05-10T14:14:07.756Z,1.72
2019-05-10T14:16:36.459Z,1.75
2019-05-10T14:19:05.243Z,1.80
2019-05-10T14:21:33.939Z,1.95
2019-05-10T14:24:02.643Z,1.92
2019-05-10T14:26:31.385Z,1.60
2019-05-10T14:29:00.076Z,1.70
2019-05-10T14:31:28.783Z,1.72
2019-05-10T14:34:14.537Z,1.70
2019-05-10T14:36:27.919Z,1.87
2019-05-10T14:38:56.624Z,1.62
2019-05-10T14:41:25.311Z,1.72
2019-05-10T14:43:53.991Z,1.77
2019-05-10T14:46:22.693Z,1.87
2019-05-10T14:48:51.324Z,1.50
2019-05-10T14:51:20.020Z,1.60
2019-05-10T14:53:48.761Z,1.60
2019-05-10T14:56:17.519Z,1.60
2019-05-10T14:58:46.311Z,1.95
2019-05-10T15:01:15.020Z,1.57
2019-05-10T15:03:45.848Z,1.65
2019-05-10T15:06:14.068Z,1.30
2019-05-10T15:08:42.764Z,1.65
2019-05-10T15:11:11.391Z,1.73
2019-05-10T15:13:40.255Z,1.50
2019-05-10T15:16:12.869Z,1.37
2019-05-10T15:18:39.349Z,1.37
2019-05-10T15:21:08.049Z,1.50
2019-05-10T15:23:36.754Z,1.50
2019-05-10T15:26:11.880Z,1.62
2019-05-10T15:28:40.747Z,2.02
2019-05-10T15:31:06.299Z,1.40
2019-05-10T15:33:34.992Z,1.17
2019-05-10T15:36:03.695Z,1.80
2019-05-10T15:38:32.392Z,1.40
2019-05-10T15:41:01.096Z,1.50
2019-05-10T15:43:29.793Z,1.52
2019-05-10T15:45:58.495Z,1.40
2019-05-10T15:48:27.293Z,1.30
2019-05-10T15:50:56.040Z,1.50
2019-05-10T15:53:25.609Z,1.80
2019-05-10T15:55:59.038Z,1.75
2019-05-10T15:58:25.467Z,1.40
2019-05-10T16:00:54.129Z,1.62
2019-05-10T16:03:22.903Z,1.70
2019-05-10T16:06:00.343Z,1.50
2019-05-10T16:08:23.930Z,2.40
2019-05-10T16:10:52.348Z,1.70
2019-05-10T16:13:24.623Z,1.50
2019-05-10T16:16:10.668Z,1.40
2019-05-10T16:18:41.395Z,1.62
2019-05-10T16:21:14.943Z,1.60
2019-05-10T16:23:41.444Z,1.70
2019-05-10T16:26:10.516Z,1.70
2019-05-10T16:28:39.271Z,1.70
2019-05-10T16:31:07.989Z,1.52
2019-05-10T16:33:36.676Z,1.52
2019-05-10T16:36:08.242Z,1.77
2019-05-10T16:38:35.955Z,1.67
2019-05-10T16:41:04.764Z,1.62
2019-05-10T16:43:33.467Z,1.60
2019-05-10T16:46:02.225Z,1.52
2019-05-10T16:48:31.008Z,1.72
2019-05-10T16:51:03.855Z,1.72
2019-05-10T16:53:31.488Z,1.60
2019-05-10T16:56:00.260Z,1.65
2019-05-10T16:58:28.959Z,1.42
2019-05-10T17:00:57.666Z,1.72
2019-05-10T17:03:28.602Z,1.87
2019-05-10T17:05:58.644Z,1.90
2019-05-10T17:08:30.596Z,1.80
2019-05-10T17:10:57.499Z,1.90
2019-05-10T17:13:26.195Z,2.17
2019-05-10T17:15:54.903Z,2.10
2019-05-10T17:18:24.204Z,2.00
2019-05-10T17:20:53.003Z,2.07
2019-05-10T17:23:21.710Z,2.20
2019-05-10T17:25:50.566Z,2.20
2019-05-10T17:28:19.251Z,2.23
2019-05-10T17:30:47.955Z,2.60
2019-05-10T17:33:16.651Z,2.80
2019-05-10T17:35:45.416Z,2.07
2019-05-10T17:38:16.071Z,2.00
2019-05-10T17:40:47.541Z,1.93
2019-05-10T17:43:20.850Z,1.80
2019-05-10T17:45:45.335Z,1.73
2019-05-10T17:48:14.028Z,2.00
2019-05-10T17:50:45.553Z,1.60
2019-05-10T17:53:13.369Z,1.93
2019-05-10T17:55:42.076Z,2.00
2019-05-10T17:58:10.769Z,2.07
2019-05-10T18:00:39.723Z,2.10
2019-05-10T18:03:08.418Z,2.00
2019-05-10T18:05:41.157Z,2.10
2019-05-10T18:08:07.486Z,2.40
2019-05-10T18:10:36.171Z,2.30
2019-05-10T18:13:05.326Z,2.20
2019-05-10T18:15:34.522Z,2.10
2019-05-10T18:18:04.418Z,2.40
2019-05-10T18:20:41.152Z,2.40
2019-05-10T18:23:03.459Z,2.90
2019-05-10T18:25:32.263Z,2.40
2019-05-10T18:28:00.956Z,3.00
2019-05-10T18:30:29.656Z,2.90
2019-05-10T18:32:58.349Z,2.50
2019-05-10T18:35:27.187Z,2.60
2019-05-10T18:37:59.628Z,2.90
2019-05-10T18:40:31.585Z,2.77
2019-05-10T18:42:57.952Z,3.00
2019-05-10T18:45:28.730Z,2.87
2019-05-10T18:47:57.815Z,3.10
2019-05-10T18:50:26.533Z,3.27
2019-05-10T18:52:55.196Z,3.00
2019-05-10T18:55:23.891Z,2.93
2019-05-10T18:57:52.734Z,2.73
2019-05-10T19:00:23.011Z,3.20
2019-05-10T19:02:55.195Z,3.17
2019-05-10T19:05:25.226Z,3.17
2019-05-10T19:08:03.036Z,3.47
2019-05-10T19:10:23.157Z,3.00
2019-05-10T19:12:59.952Z,2.50
2019-05-10T19:15:22.198Z,2.53
2019-05-10T19:17:51.014Z,2.00
2019-05-10T19:20:19.717Z,2.50
2019-05-10T19:22:48.415Z,2.83
2019-05-10T19:25:17.136Z,3.60
2019-05-10T19:27:50.559Z,3.73
2019-05-10T19:30:20.193Z,3.87
2019-05-10T19:32:51.088Z,3.70
2019-05-10T19:35:16.980Z,3.53
2019-05-10T19:37:45.739Z,4.07
2019-05-10T19:40:15.444Z,3.77
2019-05-10T19:42:44.932Z,3.47
2019-05-10T19:45:19.342Z,3.90
2019-05-10T19:47:44.459Z,3.70
2019-05-10T19:50:13.144Z,3.00
2019-05-10T19:52:41.840Z,3.47
2019-05-10T19:55:12.872Z,3.23
2019-05-10T19:57:40.882Z,3.27
2019-05-10T20:00:10.467Z,3.30
2019-05-10T20:02:39.168Z,3.13
2019-05-10T20:05:08.071Z,3.37
2019-05-10T20:07:45.518Z,3.10
2019-05-10T20:10:08.215Z,2.83
2019-05-10T20:12:37.022Z,2.77
2019-05-10T20:15:09.831Z,2.80
2019-05-10T20:17:38.792Z,2.97
2019-05-10T20:20:08.012Z,2.80
2019-05-10T20:22:36.740Z,2.90
2019-05-10T20:25:08.545Z,2.90
2019-05-10T20:27:37.375Z,3.03
2019-05-10T20:30:07.467Z,3.03
2019-05-10T20:32:36.157Z,2.17
2019-05-10T20:35:06.627Z,3.10
2019-05-10T20:37:35.321Z,2.63
2019-05-10T20:40:05.221Z,3.37
2019-05-10T20:42:33.914Z,3.03
2019-05-10T20:45:07.633Z,3.70
2019-05-10T20:47:32.963Z,3.70
2019-05-10T20:50:01.657Z,3.57
2019-05-10T20:52:30.359Z,3.43
2019-05-10T20:54:59.051Z,3.03
2019-05-10T20:57:27.745Z,3.47
2019-05-10T20:59:56.447Z,3.00
2019-05-10T21:02:25.131Z,2.80
2019-05-10T21:04:53.823Z,2.43
2019-05-10T21:07:22.578Z,3.10
2019-05-10T21:09:51.413Z,2.60
2019-05-10T21:12:20.104Z,2.50
2019-05-10T21:14:48.795Z,2.80
2019-05-10T21:17:17.491Z,2.50
2019-05-10T21:19:46.184Z,3.40
2019-05-10T21:22:15.019Z,3.50
2019-05-10T21:24:43.709Z,3.53
2019-05-10T21:27:12.400Z,2.70
2019-05-10T21:29:41.267Z,3.00
2019-05-10T21:32:09.975Z,2.30
2019-05-10T21:34:38.672Z,2.37
2019-05-10T21:37:07.366Z,2.30
2019-05-10T21:39:36.119Z,2.20
2019-05-10T21:42:04.824Z,1.90
2019-05-10T21:44:33.451Z,2.20
2019-05-10T21:47:02.147Z,2.47
2019-05-10T21:49:30.859Z,2.20
2019-05-10T21:51:59.555Z,2.33
2019-05-10T21:54:28.251Z,2.20
2019-05-10T21:56:56.939Z,2.10
2019-05-10T21:59:25.837Z,2.10
2019-05-10T22:01:54.591Z,2.13
2019-05-10T22:04:23.287Z,2.40
2019-05-10T22:06:52.156Z,2.30
2019-05-10T22:09:21.140Z,2.20
2019-05-10T22:11:49.883Z,2.30
2019-05-10T22:14:18.576Z,2.00
2019-05-10T22:16:47.267Z,2.13
2019-05-10T22:19:15.977Z,1.80
2019-05-10T22:21:44.652Z,2.00
2019-05-10T22:24:13.363Z,2.07
2019-05-10T22:26:42.051Z,2.10
2019-05-10T22:29:10.748Z,2.00
2019-05-10T22:31:39.440Z,2.30
2019-05-10T22:34:08.141Z,1.70
2019-05-10T22:36:36.828Z,2.00
2019-05-10T22:39:07.786Z,1.97
2019-05-10T22:41:36.719Z,1.90
2019-05-10T22:44:05.407Z,1.70
2019-05-10T22:46:34.175Z,1.77
2019-05-10T22:49:02.868Z,2.27
2019-05-10T22:51:31.555Z,2.53
2019-05-10T22:54:00.477Z,1.90
2019-05-10T22:56:29.255Z,2.50
2019-05-10T22:58:57.949Z,2.07
2019-05-10T23:01:26.645Z,2.30
2019-05-10T23:03:55.335Z,2.20
2019-05-10T23:06:23.968Z,2.30
2019-05-10T23:08:52.667Z,2.60
2019-05-10T23:11:21.369Z,2.83
2019-05-10T23:13:50.175Z,2.90
2019-05-10T23:16:18.875Z,3.10
2019-05-10T23:18:47.555Z,2.70
2019-05-10T23:21:16.255Z,3.20
2019-05-10T23:23:44.947Z,3.17
2019-05-10T23:26:13.640Z,2.77
2019-05-10T23:28:43.139Z,3.03
2019-05-10T23:31:11.915Z,3.40
2019-05-10T23:33:40.610Z,3.40
2019-05-10T23:36:09.323Z,3.37
2019-05-10T23:38:38.044Z,3.40
2019-05-10T23:41:06.731Z,3.60
2019-05-10T23:43:35.461Z,3.67
2019-05-10T23:46:04.152Z,3.57
2019-05-10T23:48:32.847Z,3.60
2019-05-10T23:51:01.540Z,3.40
2019-05-10T23:53:30.235Z,3.73
2019-05-10T23:55:58.935Z,3.77
2019-05-10T23:58:27.624Z,4.00
